Time;durP1;ratioP1;P1;durP2;ratioP2;P2;SDS_P1;SDS_P2;PMS_P1;PMS_P2;Temp;Humidity;BMP_temperature;BMP_pressure;BME280_temperature;BME280_humidity;BME280_pressure;Samples;Min_cycle;Max_cycle;Signal;HPM_P1;HPM_P2
2021/09/18 00:01:52;;;;;;;12.18;3.75;;;;;;;35.61;21.38;94091.97;5096322;28;20048;-56
2021/09/18 00:04:19;;;;;;;10.32;3.97;;;;;;;35.61;21.93;94091.22;5110739;28;20043;-58
2021/09/18 00:06:46;;;;;;;13.25;3.75;;;;;;;35.87;21.08;94092.41;5100940;28;20516;-56
2021/09/18 00:09:14;;;;;;;10.75;4.05;;;;;;;35.51;21.83;94093.94;5097758;28;20067;-57
2021/09/18 00:11:41;;;;;;;9.13;3.80;;;;;;;35.71;21.80;94093.47;5097485;28;20054;-58
2021/09/18 00:14:08;;;;;;;8.65;3.90;;;;;;;35.62;21.96;94100.88;5097169;28;20489;-59
2021/09/18 00:16:35;;;;;;;15.00;3.60;;;;;;;35.67;21.78;94105.72;5095918;28;20055;-56
2021/09/18 00:19:02;;;;;;;8.88;3.72;;;;;;;35.75;21.47;94090.59;5097706;28;20047;-56
2021/09/18 00:21:30;;;;;;;12.55;3.97;;;;;;;35.63;21.92;94084.09;5096569;28;20054;-56
2021/09/18 00:23:57;;;;;;;8.20;3.60;;;;;;;35.63;21.69;94077.91;5098701;28;20054;-56
2021/09/18 00:26:24;;;;;;;9.85;3.95;;;;;;;35.53;21.95;94091.53;5103903;28;20043;-55
2021/09/18 00:28:51;;;;;;;11.70;3.97;;;;;;;35.71;22.03;94096.19;5096170;28;20051;-57
2021/09/18 00:31:18;;;;;;;10.38;3.75;;;;;;;35.73;21.90;94093.03;5096475;28;20047;-56
2021/09/18 00:33:45;;;;;;;7.20;3.72;;;;;;;35.70;21.74;94088.50;5105148;28;20052;-58
2021/09/18 00:36:12;;;;;;;11.95;3.97;;;;;;;35.59;22.30;94093.63;5106765;28;20465;-56
2021/09/18 00:38:39;;;;;;;14.02;4.20;;;;;;;35.66;22.17;94085.19;5097221;28;20048;-58
2021/09/18 00:41:06;;;;;;;10.98;4.10;;;;;;;35.57;22.41;94091.38;5097014;28;20047;-56
2021/09/18 00:43:33;;;;;;;11.10;4.30;;;;;;;35.46;22.49;94097.25;5097286;28;20056;-59
2021/09/18 00:46:01;;;;;;;10.40;4.03;;;;;;;35.20;22.69;94099.47;5096667;28;20043;-56
2021/09/18 00:48:29;;;;;;;9.93;4.00;;;;;;;35.56;22.57;94116.28;5095739;28;20340;-57
2021/09/18 00:50:56;;;;;;;9.05;3.47;;;;;;;35.44;22.56;94121.41;5097121;28;20049;-60
2021/09/18 00:53:24;;;;;;;13.55;3.90;;;;;;;35.50;22.57;94135.91;5110266;28;20052;-55
2021/09/18 00:55:51;;;;;;;9.45;4.03;;;;;;;35.74;22.13;94155.09;5092068;28;20446;-58
2021/09/18 00:58:18;;;;;;;12.98;4.60;;;;;;;35.51;22.45;94170.03;5094519;28;20111;-60
2021/09/18 01:00:45;;;;;;;12.25;4.68;;;;;;;35.56;23.05;94186.94;5097033;28;20040;-57
2021/09/18 01:03:12;;;;;;;14.50;4.03;;;;;;;35.37;23.45;94183.44;5100164;28;20047;-57
2021/09/18 01:05:40;;;;;;;10.75;4.65;;;;;;;35.05;24.55;94188.16;5111727;28;20063;-57
2021/09/18 01:08:10;;;;;;;13.27;4.22;;;;;;;35.27;24.62;94198.19;5087435;28;20051;-59
2021/09/18 01:10:38;;;;;;;13.30;4.20;;;;;;;35.27;24.55;94177.22;5112186;28;20040;-56
2021/09/18 01:13:17;;;;;;;15.52;4.32;;;;;;;35.33;24.60;94175.41;5078414;28;20050;-59
2021/09/18 01:15:45;;;;;;;10.55;3.85;;;;;;;35.20;24.86;94177.50;5096454;28;20118;-55
2021/09/18 01:18:12;;;;;;;14.90;4.35;;;;;;;35.18;25.09;94171.75;5092010;28;20316;-56
2021/09/18 01:20:41;;;;;;;13.35;4.00;;;;;;;34.98;25.46;94165.97;5092675;28;20047;-58
2021/09/18 01:23:09;;;;;;;15.77;4.28;;;;;;;35.24;25.10;94145.50;5108161;28;20039;-59
2021/09/18 01:25:38;;;;;;;13.30;4.50;;;;;;;34.97;25.50;94137.31;5099638;28;20044;-57
2021/09/18 01:28:06;;;;;;;17.55;5.10;;;;;;;35.08;25.43;94124.78;5095898;28;20051;-55
2021/09/18 01:30:34;;;;;;;11.65;4.03;;;;;;;34.91;25.51;94118.91;5096311;28;20572;-62
2021/09/18 01:33:04;;;;;;;11.20;4.00;;;;;;;34.83;25.43;94117.63;5096096;28;20044;-57
2021/09/18 01:35:32;;;;;;;11.43;3.67;;;;;;;34.76;25.71;94112.47;5092799;28;20075;-57
2021/09/18 01:38:00;;;;;;;9.82;3.70;;;;;;;34.85;25.61;94109.81;5094557;28;20059;-56
2021/09/18 01:40:38;;;;;;;11.88;4.10;;;;;;;34.71;25.73;94098.75;5095302;28;20040;-55
2021/09/18 01:43:06;;;;;;;12.95;4.43;;;;;;;34.80;25.45;94096.03;5096162;28;20106;-56
2021/09/18 01:45:34;;;;;;;11.93;4.10;;;;;;;34.80;25.34;94104.94;5095192;28;20594;-56
2021/09/18 01:48:06;;;;;;;12.15;3.78;;;;;;;34.71;25.47;94102.22;5076811;28;20044;-56
2021/09/18 01:50:58;;;;;;;12.55;3.83;;;;;;;34.75;25.33;94104.78;5095940;28;20051;-60
2021/09/18 01:53:25;;;;;;;10.15;4.28;;;;;;;35.03;24.98;94098.25;5113848;28;20050;-59
2021/09/18 01:55:53;;;;;;;12.18;4.25;;;;;;;34.80;25.21;94102.22;5111044;28;20462;-55
2021/09/18 01:58:20;;;;;;;14.98;4.05;;;;;;;34.65;25.26;94106.72;5095361;28;20052;-57
2021/09/18 02:00:56;;;;;;;12.18;3.95;;;;;;;35.03;24.66;94100.19;5095837;28;20040;-58
2021/09/18 02:03:23;;;;;;;10.65;3.88;;;;;;;34.88;24.77;94103.50;5104195;28;20050;-58
2021/09/18 02:05:50;;;;;;;12.05;3.67;;;;;;;35.30;24.15;94081.22;5111304;28;20043;-57
2021/09/18 02:08:17;;;;;;;13.38;3.80;;;;;;;35.18;24.52;94093.75;5094658;28;20060;-56
2021/09/18 02:10:45;;;;;;;7.97;3.58;;;;;;;35.03;24.32;94092.06;5095822;28;20051;-56
2021/09/18 02:13:12;;;;;;;8.93;3.88;;;;;;;35.21;24.20;94097.53;5095060;28;20044;-60
2021/09/18 02:15:39;;;;;;;13.00;4.10;;;;;;;35.20;24.63;94101.44;5093924;28;20047;-57
2021/09/18 02:18:07;;;;;;;10.57;4.18;;;;;;;35.10;24.58;94099.91;5090858;28;20048;-58
2021/09/18 02:20:35;;;;;;;11.50;3.97;;;;;;;35.03;25.01;94092.06;5090772;28;20043;-55
2021/09/18 02:23:03;;;;;;;9.45;3.97;;;;;;;34.95;24.95;94079.97;5111685;28;20070;-54
2021/09/18 02:25:30;;;;;;;8.88;3.60;;;;;;;35.05;24.75;94084.22;5114316;28;20480;-58
2021/09/18 02:27:58;;;;;;;6.97;3.78;;;;;;;35.00;24.62;94084.81;5094811;28;20047;-56
2021/09/18 02:30:32;;;;;;;10.73;3.28;;;;;;;35.11;24.69;94090.53;5095230;28;20056;-59
2021/09/18 02:32:59;;;;;;;9.45;3.28;;;;;;;34.97;25.15;94089.19;5094513;28;20055;-60
2021/09/18 02:35:28;;;;;;;12.35;3.70;;;;;;;34.75;25.34;94074.91;5094737;28;20051;-55
2021/09/18 02:37:56;;;;;;;9.75;3.78;;;;;;;34.97;25.93;94083.00;5092941;28;20051;-55
2021/09/18 02:40:25;;;;;;;13.13;4.03;;;;;;;35.09;25.33;94080.13;5095060;28;20039;-60
2021/09/18 02:42:55;;;;;;;10.02;4.10;;;;;;;35.10;25.46;94081.66;5094388;28;20047;-55
2021/09/18 02:45:23;;;;;;;12.10;3.50;;;;;;;35.00;25.73;94082.09;5088050;28;20040;-60
2021/09/18 02:47:50;;;;;;;9.95;4.32;;;;;;;34.89;25.59;94077.88;5094371;28;20047;-56
2021/09/18 02:50:18;;;;;;;13.43;3.92;;;;;;;34.57;26.10;94072.91;5094811;28;20054;-56
2021/09/18 02:52:46;;;;;;;11.43;4.47;;;;;;;34.82;25.75;94078.09;5093816;28;20055;-57
2021/09/18 02:55:14;;;;;;;10.48;4.10;;;;;;;34.81;25.85;94076.59;5094730;28;20040;-57
2021/09/18 02:57:41;;;;;;;8.70;3.88;;;;;;;34.80;25.79;94072.38;5094420;28;20058;-60
2021/09/18 03:00:10;;;;;;;14.32;4.80;;;;;;;34.61;26.16;94073.50;5094760;28;20051;-57
2021/09/18 03:02:37;;;;;;;11.57;4.18;;;;;;;34.65;26.34;94079.56;5094426;28;20048;-56
2021/09/18 03:05:05;;;;;;;10.55;4.13;;;;;;;34.63;26.52;94079.28;5088840;28;20074;-56
2021/09/18 03:07:32;;;;;;;10.73;4.10;;;;;;;34.54;26.78;94073.78;5094080;28;20044;-56
2021/09/18 03:09:59;;;;;;;11.20;4.57;;;;;;;34.68;26.67;94073.25;5076839;28;20039;-54
2021/09/18 03:12:27;;;;;;;10.65;4.30;;;;;;;34.58;26.82;94074.41;5094715;28;20043;-58
2021/09/18 03:14:54;;;;;;;11.55;4.00;;;;;;;34.42;27.10;94077.38;5094367;28;20048;-56
2021/09/18 03:17:21;;;;;;;12.02;3.90;;;;;;;34.44;26.98;94067.59;5094297;28;20332;-56
2021/09/18 03:19:53;;;;;;;11.77;4.32;;;;;;;34.55;26.79;94064.44;5093804;28;20048;-56
2021/09/18 03:22:20;;;;;;;11.05;4.38;;;;;;;34.89;26.47;94060.81;5099052;28;20044;-57
2021/09/18 03:24:47;;;;;;;11.38;4.10;;;;;;;34.69;26.61;94055.00;5100549;28;20048;-56
2021/09/18 03:27:15;;;;;;;11.60;4.53;;;;;;;34.65;26.56;94063.28;5093099;28;20055;-59
2021/09/18 03:29:42;;;;;;;10.80;4.40;;;;;;;34.63;26.55;94057.56;5094365;28;20040;-56
2021/09/18 03:32:09;;;;;;;15.15;4.35;;;;;;;34.67;26.80;94060.88;5094561;28;20485;-58
2021/09/18 03:34:37;;;;;;;10.98;4.28;;;;;;;34.77;26.42;94056.97;5089401;28;20063;-56
2021/09/18 03:37:04;;;;;;;10.07;4.75;;;;;;;34.75;26.39;94059.38;5094543;28;20048;-57
2021/09/18 03:39:31;;;;;;;11.90;4.90;;;;;;;34.54;26.33;94063.69;5093880;28;20054;-55
2021/09/18 03:41:58;;;;;;;11.02;4.45;;;;;;;34.67;26.38;94070.97;5093700;28;20040;-59
2021/09/18 03:44:25;;;;;;;11.93;4.35;;;;;;;34.65;26.49;94040.81;5093408;28;20048;-56
2021/09/18 03:46:52;;;;;;;11.48;4.32;;;;;;;34.61;26.46;94030.09;5094197;28;20476;-56
2021/09/18 03:49:19;;;;;;;11.45;4.68;;;;;;;34.62;26.33;94042.47;5093402;28;20059;-55
2021/09/18 03:51:46;;;;;;;12.60;4.65;;;;;;;34.58;26.58;94047.28;5094021;28;20044;-65
2021/09/18 03:54:14;;;;;;;13.15;4.25;;;;;;;34.59;26.58;94054.97;5105518;28;20044;-53
2021/09/18 03:56:41;;;;;;;9.93;4.10;;;;;;;34.42;26.74;94059.16;5081210;28;20371;-57
2021/09/18 03:59:08;;;;;;;11.77;4.32;;;;;;;34.41;26.76;94065.03;5073928;28;20474;-50
2021/09/18 04:01:35;;;;;;;13.25;4.70;;;;;;;34.52;26.51;94062.63;5077782;28;20074;-54
2021/09/18 04:04:02;;;;;;;11.10;3.78;;;;;;;34.55;26.42;94067.16;5098224;28;20438;-54
2021/09/18 04:06:30;;;;;;;9.35;4.20;;;;;;;34.66;26.27;94069.47;5092951;28;20044;-51
2021/09/18 04:08:57;;;;;;;10.65;3.85;;;;;;;34.63;26.09;94060.28;5093123;28;20055;-50
2021/09/18 04:11:25;;;;;;;11.35;4.20;;;;;;;34.42;26.50;94061.84;5094092;28;20048;-54
2021/09/18 04:13:52;;;;;;;10.40;4.35;;;;;;;34.35;26.42;94072.97;5093859;28;20047;-50
2021/09/18 04:16:20;;;;;;;14.27;3.92;;;;;;;34.52;26.55;94073.50;5096255;28;20473;-50
2021/09/18 04:18:48;;;;;;;9.88;4.45;;;;;;;34.58;26.63;94074.41;5096835;28;20052;-49
2021/09/18 04:21:15;;;;;;;11.30;4.22;;;;;;;34.40;26.46;94080.53;5097525;28;20047;-52
2021/09/18 04:23:43;;;;;;;10.35;3.70;;;;;;;34.43;26.43;94084.31;5111095;28;20462;-53
2021/09/18 04:26:10;;;;;;;9.27;4.05;;;;;;;34.54;26.42;94085.41;5089128;28;20063;-52
2021/09/18 04:28:37;;;;;;;9.60;4.43;;;;;;;34.68;26.22;94072.50;5097548;28;20362;-49
2021/09/18 04:31:04;;;;;;;13.85;4.82;;;;;;;34.61;26.61;94078.94;5097031;28;20055;-52
2021/09/18 04:33:32;;;;;;;12.32;4.30;;;;;;;34.74;26.65;94076.88;5095819;28;20066;-57
2021/09/18 04:35:59;;;;;;;12.63;4.30;;;;;;;34.43;27.06;94089.75;5095953;28;20051;-56
2021/09/18 04:38:26;;;;;;;14.15;5.05;;;;;;;34.50;27.32;94097.59;5097262;28;20039;-57
2021/09/18 04:40:53;;;;;;;11.00;4.53;;;;;;;34.40;27.48;94117.78;5097446;28;20461;-51
2021/09/18 04:43:20;;;;;;;12.32;4.20;;;;;;;34.49;27.22;94147.66;5097325;28;20050;-49
2021/09/18 04:45:47;;;;;;;14.25;5.00;;;;;;;34.36;27.52;94166.75;5097491;28;20073;-55
2021/09/18 04:48:14;;;;;;;11.38;4.60;;;;;;;34.37;27.63;94178.34;5097317;28;20382;-49
2021/09/18 04:50:42;;;;;;;13.40;5.13;;;;;;;34.09;27.45;94171.94;5097141;28;20040;-49
2021/09/18 04:53:09;;;;;;;11.65;4.68;;;;;;;33.80;28.06;94153.19;5108929;28;20082;-50
2021/09/18 04:55:36;;;;;;;9.75;4.10;;;;;;;34.05;27.14;94123.25;5098997;28;20047;-50
2021/09/18 04:58:03;;;;;;;14.57;5.13;;;;;;;34.02;27.16;94116.00;5096507;28;20055;-51
2021/09/18 05:00:30;;;;;;;10.27;4.20;;;;;;;34.10;26.88;94121.97;5096966;28;20470;-49
2021/09/18 05:02:57;;;;;;;10.40;4.28;;;;;;;34.06;27.28;94108.50;5096777;28;20047;-50
2021/09/18 05:05:25;;;;;;;11.98;4.97;;;;;;;34.25;27.01;94099.28;5094931;28;20055;-51
2021/09/18 05:07:52;;;;;;;9.23;4.32;;;;;;;34.30;26.52;94104.13;5095984;28;20052;-51
2021/09/18 05:10:20;;;;;;;10.75;4.05;;;;;;;34.10;26.88;94101.03;5077814;28;20044;-51
2021/09/18 05:12:47;;;;;;;12.15;4.38;;;;;;;34.11;26.88;94083.53;5096698;28;20059;-50
2021/09/18 05:15:14;;;;;;;10.85;4.20;;;;;;;33.97;27.29;94084.06;5096095;28;20051;-48
2021/09/18 05:17:41;;;;;;;13.68;3.97;;;;;;;34.08;27.07;94087.13;5096293;28;20068;-48
2021/09/18 05:20:09;;;;;;;7.15;3.90;;;;;;;34.11;26.50;94078.13;5096515;28;20051;-50
2021/09/18 05:22:36;;;;;;;8.18;4.10;;;;;;;34.19;26.57;94071.22;5095268;28;20051;-52
2021/09/18 05:25:05;;;;;;;8.05;4.07;;;;;;;34.24;26.78;94081.50;5095218;28;20383;-51
2021/09/18 05:27:32;;;;;;;10.27;4.38;;;;;;;34.32;27.02;94077.28;5096018;28;20059;-49
2021/09/18 05:29:59;;;;;;;9.02;4.07;;;;;;;34.21;27.19;94081.63;5096386;28;20385;-49
2021/09/18 05:32:26;;;;;;;8.35;3.80;;;;;;;34.45;27.06;94098.19;5096149;28;20489;-49
2021/09/18 05:34:53;;;;;;;9.73;4.13;;;;;;;34.32;27.06;94098.25;5095262;28;20388;-48
2021/09/18 05:37:21;;;;;;;7.60;3.47;;;;;;;34.40;27.49;94102.25;5095948;28;20446;-49
2021/09/18 05:39:48;;;;;;;9.23;3.75;;;;;;;34.41;27.36;94097.56;5096296;28;20359;-49
2021/09/18 05:42:15;;;;;;;6.68;3.75;;;;;;;34.46;27.26;94110.56;5096172;28;20462;-52
2021/09/18 05:44:43;;;;;;;8.98;4.20;;;;;;;34.49;27.34;94115.09;5108331;28;20052;-51
2021/09/18 05:47:10;;;;;;;9.60;4.00;;;;;;;34.49;27.19;94105.00;5088571;28;20040;-50
2021/09/18 05:49:37;;;;;;;10.18;4.35;;;;;;;34.49;27.15;94120.50;5096057;28;20047;-49
2021/09/18 05:52:04;;;;;;;8.32;4.13;;;;;;;34.68;27.02;94115.91;5095348;28;20040;-51
2021/09/18 05:54:32;;;;;;;7.80;3.97;;;;;;;35.37;25.96;94129.84;5096672;28;20047;-52
2021/09/18 05:56:59;;;;;;;8.48;3.63;;;;;;;35.57;25.60;94128.66;5090732;28;20048;-58
2021/09/18 05:59:26;;;;;;;10.13;4.43;;;;;;;35.75;25.11;94139.53;5093675;28;20063;-70
2021/09/18 06:01:53;;;;;;;11.00;4.32;;;;;;;35.35;25.94;94134.22;5074156;28;20044;-58
2021/09/18 06:04:21;;;;;;;8.77;4.57;;;;;;;35.34;26.16;94133.47;5099293;28;20051;-47
2021/09/18 06:06:48;;;;;;;13.27;7.43;;;;;;;34.85;27.04;94136.97;5089695;28;20075;-45
2021/09/18 06:09:15;;;;;;;12.55;5.28;;;;;;;34.85;26.92;94131.53;5095169;28;20366;-48
2021/09/18 06:11:42;;;;;;;13.07;5.20;;;;;;;34.70;27.38;94127.09;5094928;28;20048;-48
2021/09/18 06:14:09;;;;;;;12.25;4.82;;;;;;;34.71;27.28;94139.47;5094117;28;20437;-48
2021/09/18 06:16:36;;;;;;;11.60;5.00;;;;;;;34.55;27.01;94137.72;5094192;28;20040;-57
2021/09/18 06:19:03;;;;;;;12.10;4.80;;;;;;;34.54;27.39;94149.78;5094983;28;20063;-57
2021/09/18 06:21:30;;;;;;;10.68;4.65;;;;;;;35.05;26.70;94138.53;5094563;28;20040;-45
2021/09/18 06:23:57;;;;;;;11.25;5.25;;;;;;;34.93;26.84;94154.50;5093687;28;20462;-52
2021/09/18 06:26:24;;;;;;;10.20;4.43;;;;;;;35.30;26.44;94148.38;5085276;28;20048;-67
2021/09/18 06:28:51;;;;;;;7.88;4.13;;;;;;;35.88;26.04;94147.56;5101937;28;20456;-59
2021/09/18 06:31:18;;;;;;;10.57;4.85;;;;;;;35.77;26.26;94154.19;5094576;28;20056;-67
2021/09/18 06:33:45;;;;;;;12.65;4.50;;;;;;;36.29;25.38;94148.88;5091041;28;20052;-68
2021/09/18 06:36:12;;;;;;;8.48;4.32;;;;;;;36.42;25.32;94149.44;5094169;28;20055;-58
2021/09/18 06:38:39;;;;;;;10.57;4.57;;;;;;;37.16;24.26;94147.97;5093242;28;20056;-51
2021/09/18 06:41:06;;;;;;;11.90;4.25;;;;;;;36.91;25.12;94142.94;5092313;28;20040;-50
2021/09/18 06:43:34;;;;;;;12.25;4.80;;;;;;;36.81;25.23;94144.22;5088845;28;20113;-68
2021/09/18 06:46:01;;;;;;;11.57;4.22;;;;;;;36.78;25.26;94145.09;5094701;28;20370;-59
2021/09/18 06:48:28;;;;;;;13.88;4.72;;;;;;;36.19;25.94;94147.38;5094211;28;20059;-67
2021/09/18 06:50:56;;;;;;;15.65;4.72;;;;;;;36.13;26.34;94147.97;5094837;28;20505;-46
2021/09/18 06:53:23;;;;;;;12.43;5.30;;;;;;;35.42;26.78;94147.53;5105573;28;20056;-55
2021/09/18 06:55:50;;;;;;;13.90;4.55;;;;;;;35.18;27.21;94144.59;5109655;28;20058;-54
2021/09/18 06:58:18;;;;;;;10.40;4.70;;;;;;;34.99;27.43;94135.66;5094549;28;20075;-49
2021/09/18 07:00:45;;;;;;;10.48;4.80;;;;;;;35.80;26.86;94152.53;5094556;28;20360;-46
2021/09/18 07:03:12;;;;;;;9.93;4.47;;;;;;;35.72;27.00;94154.03;5096630;28;20050;-56
2021/09/18 07:05:39;;;;;;;11.52;4.93;;;;;;;35.70;26.63;94156.47;5085642;28;20055;-54
2021/09/18 07:08:06;;;;;;;9.88;4.28;;;;;;;36.53;25.90;94157.16;5093966;28;20052;-56
2021/09/18 07:10:33;;;;;;;13.27;4.15;;;;;;;36.01;26.46;94162.50;5094585;28;20062;-51
2021/09/18 07:13:00;;;;;;;9.55;4.18;;;;;;;35.82;27.07;94167.19;5094430;28;20052;-51
2021/09/18 07:15:28;;;;;;;11.82;4.22;;;;;;;35.86;27.34;94164.31;5094010;28;20086;-53
2021/09/18 07:17:55;;;;;;;8.25;5.55;;;;;;;35.60;27.30;94166.56;5093222;28;20406;-64
2021/09/18 07:20:22;;;;;;;8.85;4.10;;;;;;;33.30;30.39;94160.25;5094442;28;20047;-51
2021/09/18 07:22:49;;;;;;;9.05;4.18;;;;;;;33.50;30.77;94155.34;5094194;28;20047;-43
2021/09/18 07:25:17;;;;;;;10.02;4.32;;;;;;;35.18;28.08;94156.22;5093926;28;20039;-53
2021/09/18 07:27:44;;;;;;;8.65;4.20;;;;;;;36.26;25.76;94163.38;5100738;28;20051;-48
2021/09/18 07:30:11;;;;;;;8.73;4.88;;;;;;;36.40;26.01;94166.25;5114101;28;20047;-49
2021/09/18 07:32:39;;;;;;;9.43;4.38;;;;;;;35.47;27.15;94160.53;5111151;28;20401;-49
2021/09/18 07:35:06;;;;;;;8.32;4.40;;;;;;;36.49;25.70;94165.47;5094280;28;20580;-48
2021/09/18 07:37:37;;;;;;;9.73;4.20;;;;;;;35.08;27.51;94172.94;5094108;28;20048;-48
2021/09/18 07:40:07;;;;;;;8.15;4.30;;;;;;;35.45;26.75;94182.72;5093809;28;20059;-49
2021/09/18 07:42:34;;;;;;;8.32;4.43;;;;;;;34.82;27.38;94170.41;5101408;28;20047;-48
2021/09/18 07:45:02;;;;;;;9.10;4.70;;;;;;;35.04;27.14;94178.50;5099696;28;20047;-48
2021/09/18 07:47:30;;;;;;;7.85;4.07;;;;;;;34.93;27.25;94176.22;5094012;28;20047;-49
2021/09/18 07:49:57;;;;;;;12.75;4.55;;;;;;;34.86;26.78;94165.63;5094700;28;20051;-48
2021/09/18 07:52:24;;;;;;;8.07;4.13;;;;;;;34.41;27.60;94157.25;5103718;28;20062;-49
2021/09/18 07:54:51;;;;;;;8.07;3.83;;;;;;;34.85;27.23;94153.25;5105730;28;20070;-48
2021/09/18 07:57:19;;;;;;;7.72;4.13;;;;;;;35.35;26.72;94162.16;5096448;28;20040;-48
2021/09/18 07:59:46;;;;;;;7.95;4.35;;;;;;;34.89;27.16;94169.41;5097269;28;20055;-48
2021/09/18 08:02:13;;;;;;;47.58;6.88;;;;;;;34.59;27.91;94168.19;5101646;28;20050;-54
2021/09/18 08:04:41;;;;;;;12.63;4.40;;;;;;;34.37;28.39;94162.81;5096061;28;20385;-75
2021/09/18 08:07:08;;;;;;;10.07;5.13;;;;;;;34.12;28.73;94169.13;5097648;28;20378;-66
2021/09/18 08:09:35;;;;;;;10.55;4.60;;;;;;;34.86;27.28;94165.63;5098520;28;20439;-70
2021/09/18 08:12:02;;;;;;;13.48;5.25;;;;;;;34.22;28.39;94162.56;5097419;28;20048;-51
2021/09/18 08:14:29;;;;;;;8.73;5.00;;;;;;;33.95;29.03;94165.09;5097806;28;20452;-68
2021/09/18 08:16:57;;;;;;;10.27;5.07;;;;;;;34.82;27.82;94164.97;5097322;28;20043;-52
2021/09/18 08:19:24;;;;;;;7.00;4.97;;;;;;;34.37;28.17;94162.06;5096355;28;20060;-48
2021/09/18 08:21:52;;;;;;;7.93;4.70;;;;;;;33.92;28.78;94165.97;5100172;28;20350;-48
2021/09/18 08:24:19;;;;;;;8.40;4.95;;;;;;;34.16;28.91;94167.03;5110781;28;20055;-49
2021/09/18 08:26:47;;;;;;;9.98;4.70;;;;;;;34.65;28.35;94174.56;5097686;28;20047;-54
2021/09/18 08:29:14;;;;;;;8.80;4.97;;;;;;;34.75;28.99;94186.97;5093552;28;20059;-51
2021/09/18 08:31:41;;;;;;;9.77;4.55;;;;;;;35.15;28.42;94183.53;5096163;28;20380;-52
2021/09/18 08:34:09;;;;;;;6.03;3.97;;;;;;;35.18;28.06;94185.34;5102107;28;20335;-49
2021/09/18 08:36:36;;;;;;;8.40;4.65;;;;;;;35.10;28.27;94178.66;5099007;28;20051;-45
2021/09/18 08:39:04;;;;;;;8.35;4.35;;;;;;;35.44;27.59;94181.22;5097491;28;20044;-58
2021/09/18 08:41:32;;;;;;;8.77;4.88;;;;;;;35.92;26.78;94184.28;5096304;28;20044;-48
2021/09/18 08:44:01;;;;;;;8.75;4.43;;;;;;;35.75;26.58;94183.03;5112589;28;20351;-68
2021/09/18 08:46:30;;;;;;;8.05;3.95;;;;;;;35.11;27.17;94169.31;5078917;28;20048;-54
2021/09/18 08:48:57;;;;;;;8.10;4.30;;;;;;;36.03;25.75;94168.25;5096675;28;20470;-50
2021/09/18 08:51:25;;;;;;;12.25;4.53;;;;;;;35.42;26.37;94182.88;5112485;28;20063;-54
2021/09/18 08:53:52;;;;;;;6.80;5.50;;;;;;;35.48;26.12;94184.53;5089780;28;20044;-51
2021/09/18 08:56:20;;;;;;;9.25;6.47;;;;;;;35.20;26.44;94199.22;5095675;28;20051;-53
2021/09/18 08:58:48;;;;;;;11.93;7.00;;;;;;;35.02;26.72;94199.16;5096631;28;20044;-60
2021/09/18 09:01:15;;;;;;;8.80;6.30;;;;;;;34.71;27.25;94216.22;5095278;28;20043;-61
2021/09/18 09:03:43;;;;;;;8.43;6.35;;;;;;;34.37;27.73;94213.63;5104394;28;20331;-51
2021/09/18 09:06:14;;;;;;;11.38;7.70;;;;;;;35.02;27.05;94191.03;5096209;28;20047;-46
2021/09/18 09:08:55;;;;;;;10.52;7.38;;;;;;;34.68;27.55;94197.34;5095264;28;20374;-51
2021/09/18 09:11:25;;;;;;;9.43;6.90;;;;;;;34.67;27.53;94226.44;5096884;28;20044;-62
2021/09/18 09:14:05;;;;;;;9.82;7.45;;;;;;;34.61;27.74;94209.22;5094793;28;20374;-69
2021/09/18 09:16:36;;;;;;;10.02;6.93;;;;;;;34.61;27.35;94192.94;5096677;28;20052;-49
2021/09/18 09:19:17;;;;;;;8.88;7.32;;;;;;;34.42;28.04;94200.22;5077819;28;20063;-63
2021/09/18 09:21:54;;;;;;;9.57;7.00;;;;;;;34.38;27.90;94188.00;5084802;28;20045;-47
2021/09/18 09:24:25;;;;;;;12.75;7.47;;;;;;;34.25;28.16;94188.03;5093845;28;20048;-60
2021/09/18 09:27:13;;;;;;;8.68;7.18;;;;;;;34.09;28.50;94174.66;5097275;28;20572;-60
2021/09/18 09:29:40;;;;;;;10.30;6.40;;;;;;;34.26;28.02;94184.88;5092512;28;20059;-55
2021/09/18 09:32:29;;;;;;;9.05;6.38;;;;;;;34.16;27.90;94202.28;5096180;28;20043;-52
2021/09/18 09:35:00;;;;;;;8.82;6.40;;;;;;;34.20;27.91;94191.31;5085826;28;20055;-53
2021/09/18 09:37:27;;;;;;;8.95;6.00;;;;;;;34.16;28.03;94180.59;5095861;28;20446;-45
2021/09/18 09:40:01;;;;;;;6.35;5.72;;;;;;;34.26;27.96;94179.44;5106262;28;20055;-46
2021/09/18 09:42:42;;;;;;;6.90;5.60;;;;;;;34.08;27.96;94187.44;5093529;28;20048;-59
2021/09/18 09:45:22;;;;;;;6.43;4.60;;;;;;;33.50;28.43;94198.69;5073268;28;20477;-62
2021/09/18 09:48:11;;;;;;;5.30;4.80;;;;;;;33.32;29.12;94206.66;5092974;28;20044;-65
2021/09/18 09:50:42;;;;;;;4.93;3.97;;;;;;;33.07;29.33;94207.44;5095580;28;20048;-65
2021/09/18 09:53:25;;;;;;;3.88;3.47;;;;;;;32.87;29.20;94220.41;5099249;28;20047;-63
2021/09/18 09:55:52;;;;;;;9.07;4.03;;;;;;;32.77;29.59;94219.50;5095815;28;20040;-62
2021/09/18 09:58:20;;;;;;;4.55;4.15;;;;;;;32.38;29.95;94218.69;5094987;28;20062;-65
2021/09/18 10:00:52;;;;;;;5.03;4.53;;;;;;;32.22;30.03;94227.59;5094991;28;20047;-63
2021/09/18 10:03:21;;;;;;;4.80;4.30;;;;;;;32.44;29.37;94232.44;5099310;28;20036;-65
2021/09/18 10:05:49;;;;;;;5.80;5.20;;;;;;;31.75;30.23;94238.13;5094724;28;20450;-57
2021/09/18 10:08:24;;;;;;;5.07;4.57;;;;;;;32.12;29.32;94238.72;5095420;28;20090;-61
2021/09/18 10:10:53;;;;;;;7.10;4.63;;;;;;;31.69;30.01;94239.78;5093859;28;20055;-59
2021/09/18 10:13:24;;;;;;;6.28;4.90;;;;;;;31.69;29.98;94282.25;5093973;28;20040;-65
2021/09/18 10:15:52;;;;;;;;;;;;;;;31.64;30.16;94307.84;5084856;28;20048;-66
2021/09/18 10:18:37;;;;;;;7.05;5.60;;;;;;;30.63;31.74;94278.03;5096459;28;19923;-64
2021/09/18 10:24:07;;;;;;;7.65;4.90;;;;;;;31.64;29.82;94290.88;5080951;28;20051;-60
2021/09/18 10:27:23;;;;;;;7.97;4.88;;;;;;;31.56;29.60;94301.09;5108549;28;20044;-64
2021/09/18 10:29:51;;;;;;;6.60;4.75;;;;;;;31.32;30.04;94322.09;5094322;28;20050;-66
2021/09/18 10:32:19;;;;;;;5.63;4.57;;;;;;;31.36;29.70;94324.69;5094841;28;20048;-64
2021/09/18 10:34:47;;;;;;;4.90;4.18;;;;;;;31.40;30.19;94314.56;5104826;28;20047;-63
2021/09/18 10:37:36;;;;;;;4.55;4.15;;;;;;;31.65;30.21;94293.16;5085046;28;20044;-56
2021/09/18 10:40:12;;;;;;;6.05;4.00;;;;;;;32.20;28.96;94277.88;5090612;28;20054;-56
2021/09/18 10:42:45;;;;;;;6.78;3.90;;;;;;;32.32;28.73;94276.47;5093975;28;20048;-46
2021/09/18 10:45:14;;;;;;;9.27;3.75;;;;;;;32.47;28.94;94274.88;5084682;28;20047;-46
2021/09/18 10:47:49;;;;;;;7.43;3.65;;;;;;;32.58;28.40;94264.50;5095302;28;20051;-48
2021/09/18 10:50:22;;;;;;;5.13;2.55;;;;;;;32.73;28.33;94254.03;5093832;28;20055;-49
2021/09/18 10:53:11;;;;;;;7.30;2.10;;;;;;;32.76;27.63;94236.94;5071789;27;20391;-47
2021/09/18 10:56:03;;;;;;;4.07;1.85;;;;;;;33.19;26.84;94227.56;5117615;27;20327;-50
2021/09/18 10:59:14;;;;;;;2.42;1.70;;;;;;;32.92;27.31;94233.41;5070765;28;20393;-47
2021/09/18 11:02:30;;;;;;;2.38;1.58;;;;;;;33.03;27.49;94218.34;5072083;28;20393;-47
2021/09/18 11:05:29;;;;;;;3.33;2.60;;;;;;;33.09;27.54;94215.88;5071697;28;20424;-49
2021/09/18 11:08:14;;;;;;;3.47;1.95;;;;;;;33.21;26.93;94217.03;5071196;28;20397;-51
2021/09/18 11:11:01;;;;;;;2.90;1.60;;;;;;;32.99;27.08;94217.69;5071622;28;20385;-47
2021/09/18 11:13:44;;;;;;;2.67;1.75;;;;;;;32.91;27.02;94224.53;5072129;28;20876;-47
2021/09/18 11:16:33;;;;;;;2.40;1.80;;;;;;;33.11;26.97;94230.50;5091980;28;20395;-68
2021/09/18 11:19:17;;;;;;;4.60;2.10;;;;;;;25.73;40.20;94234.41;5064285;28;20400;-55
2021/09/18 11:22:11;;;;;;;44.10;4.57;;;;;;;23.42;47.13;94238.22;5078378;27;20374;-46
2021/09/18 11:24:53;;;;;;;10.77;2.40;;;;;;;23.38;47.18;94241.63;5057984;28;20769;-50
2021/09/18 11:27:34;;;;;;;3.72;2.22;;;;;;;23.59;47.94;94250.97;5091364;27;20384;-54
2021/09/18 11:30:15;;;;;;;19.85;2.88;;;;;;;23.47;47.45;94245.91;5061043;28;20433;-60
2021/09/18 11:32:57;;;;;;;99.93;8.30;;;;;;;23.88;46.27;94244.66;5092117;27;20377;-49
2021/09/18 11:35:39;;;;;;;12.73;3.17;;;;;;;23.80;47.40;94248.44;5071655;28;20871;-51
2021/09/18 11:38:27;;;;;;;10.48;4.07;;;;;;;23.62;47.38;94258.22;5073595;27;1380744;-50
2021/09/18 11:41:11;;;;;;;9.52;4.90;;;;;;;23.60;46.52;94263.16;5071025;28;20390;-43
2021/09/18 11:43:52;;;;;;;6.55;4.03;;;;;;;33.54;27.50;94271.75;5056264;28;20388;-56
2021/09/18 11:48:10;;;;;;;34.42;4.82;;;;;;;28.06;35.61;94272.94;5086095;27;20134;-51